Columbus, Ohio
Traffic Map
Current Weather Conditions
Columbus, Ohio
Scattered Clouds
Scattered Clouds
23°
Feels Like: 23°
Wind Chill: 23° Ceiling: Unl
Heat Index: 23° Visibility: 10mi
Dew Point: 11° Wind: 6mph
Humidity: 45% Direction: ° ()
Pressure: 30.31in Gusts: 0mph
Raw Report DataKCMH 241451Z VRB05KT 10SM FEW065 SCT120 23/11 A3031 RMK AO2 SLP259 T02330106 58004
Traffic Incident Summary
Active as of:
Severity:
Category:
InformationThere was an issue retrieving the traffic information for this location. Please try a different location or try again shortly.
Advertisements
Track Severe Weather on mobile